Time;durP1;ratioP1;P1;durP2;ratioP2;P2;SDS_P1;SDS_P2;PMS_P1;PMS_P2;Temp;Humidity;BMP_temperature;BMP_pressure;BME280_temperature;BME280_humidity;BME280_pressure;Samples;Min_cycle;Max_cycle;Signal;HPM_P1;HPM_P2
2021/11/16 00:00:40;;;;;;;35.88;18.45;;;6.70;99.90;;;5.84;100.00;61604.78;5089555;28;20064;-68
2021/11/16 00:03:09;;;;;;;36.85;19.05;;;6.70;99.90;;;5.84;100.00;61604.38;5085776;28;20093;-68
2021/11/16 00:05:38;;;;;;;30.65;16.05;;;6.70;99.90;;;5.83;100.00;61604.44;5091571;28;20046;-69
2021/11/16 00:08:06;;;;;;;32.60;17.95;;;6.80;99.90;;;5.84;100.00;61605.00;5068464;28;20139;-68
2021/11/16 00:10:35;;;;;;;26.92;15.15;;;6.80;99.90;;;5.85;100.00;61606.13;5067882;28;20136;-68
2021/11/16 00:13:10;;;;;;;33.17;17.50;;;6.80;99.90;;;5.85;100.00;61606.28;5069369;28;20143;-68
2021/11/16 00:15:42;;;;;;;41.22;20.38;;;6.80;99.90;;;5.84;100.00;61605.69;5088938;28;20048;-68
2021/11/16 00:18:11;;;;;;;39.30;18.83;;;6.70;99.90;;;5.83;100.00;61604.59;5088632;28;20126;-68
2021/11/16 00:20:43;;;;;;;36.53;19.63;;;6.70;99.90;;;5.82;100.00;61603.97;5070369;28;20430;-69
2021/11/16 00:23:17;;;;;;;32.58;16.63;;;6.70;99.90;;;5.82;100.00;61603.28;5085174;28;20131;-68
2021/11/16 00:25:51;;;;;;;37.53;18.20;;;6.70;99.90;;;5.81;100.00;61602.72;5051848;28;20135;-68
2021/11/16 00:28:19;;;;;;;33.55;17.35;;;6.70;99.90;;;5.81;100.00;61602.28;5088338;28;20082;-68
2021/11/16 00:30:46;;;;;;;34.58;18.63;;;6.70;99.90;;;5.81;100.00;61602.13;5087041;28;20214;-68
2021/11/16 00:33:15;;;;;;;38.30;19.65;;;6.70;99.90;;;5.81;100.00;61602.03;5082096;28;20094;-68
2021/11/16 00:35:43;;;;;;;40.05;19.73;;;6.70;99.90;;;5.81;100.00;61601.81;5083685;28;20040;-68
2021/11/16 00:38:13;;;;;;;37.80;19.48;;;6.80;99.90;;;5.81;100.00;61601.72;5083069;28;20072;-69
2021/11/16 00:40:41;;;;;;;36.80;19.77;;;6.70;99.90;;;5.80;100.00;61601.16;5086505;28;20127;-68
2021/11/16 00:43:09;;;;;;;36.22;19.13;;;6.70;99.90;;;5.80;100.00;61600.72;5088462;28;20128;-68
2021/11/16 00:45:39;;;;;;;30.95;17.90;;;6.70;99.90;;;5.80;100.00;61600.63;5090624;28;20075;-69
2021/11/16 00:48:08;;;;;;;30.90;17.30;;;6.70;99.90;;;5.80;100.00;61601.22;5082904;28;20593;-68
2021/11/16 00:50:38;;;;;;;37.38;18.50;;;6.80;99.90;;;5.80;100.00;61600.84;5085238;28;20075;-68
2021/11/16 00:53:06;;;;;;;34.65;17.85;;;6.80;99.90;;;5.80;100.00;61601.00;5089264;28;20071;-68
2021/11/16 00:55:33;;;;;;;28.88;15.85;;;6.80;99.90;;;5.80;100.00;61601.25;5089304;28;20067;-68
2021/11/16 00:58:01;;;;;;;36.90;18.48;;;6.70;99.90;;;5.79;100.00;61600.41;5091617;28;20071;-68
2021/11/16 01:00:28;;;;;;;38.17;18.15;;;6.70;99.90;;;5.79;100.00;61600.28;5092426;28;20091;-68
2021/11/16 01:02:56;;;;;;;34.20;17.50;;;6.70;99.90;;;5.79;100.00;61600.00;5092916;28;20129;-68
2021/11/16 01:05:24;;;;;;;32.55;15.98;;;6.70;99.90;;;5.79;100.00;61599.94;5071876;28;20135;-68
2021/11/16 01:07:51;;;;;;;27.23;15.90;;;6.70;99.90;;;5.79;100.00;61600.09;5088658;28;20051;-68
2021/11/16 01:10:21;;;;;;;36.38;18.48;;;6.80;99.90;;;5.79;100.00;61600.09;5091130;28;20136;-69
2021/11/16 01:12:48;;;;;;;35.60;17.23;;;6.70;99.90;;;5.79;100.00;61600.09;5073498;28;20044;-68
2021/11/16 01:15:17;;;;;;;30.30;17.33;;;6.70;99.90;;;5.80;100.00;61600.94;5091371;28;20074;-68
2021/11/16 01:17:45;;;;;;;32.33;17.77;;;6.80;99.90;;;5.81;100.00;61601.75;5087638;28;20080;-68
2021/11/16 01:20:14;;;;;;;31.75;17.20;;;6.80;99.90;;;5.82;100.00;61602.69;5086859;28;20494;-69
2021/11/16 01:22:44;;;;;;;39.78;20.17;;;6.80;99.90;;;5.82;100.00;61602.81;5072361;28;20051;-68
2021/11/16 01:25:12;;;;;;;30.10;16.33;;;6.80;99.90;;;5.83;100.00;61603.63;5086321;28;20056;-68
2021/11/16 01:27:39;;;;;;;35.67;18.42;;;6.80;99.90;;;5.83;100.00;61604.09;5090644;28;20458;-68
2021/11/16 01:30:13;;;;;;;37.08;18.80;;;6.80;99.90;;;5.84;100.00;61604.38;5084245;28;20132;-69
2021/11/16 01:32:45;;;;;;;36.65;18.95;;;6.80;99.90;;;5.84;100.00;61604.50;5086909;28;20048;-68
2021/11/16 01:35:13;;;;;;;34.53;18.70;;;6.80;99.90;;;5.84;100.00;61604.06;5067780;28;20493;-69
2021/11/16 01:37:41;;;;;;;30.25;16.17;;;6.80;99.90;;;5.83;100.00;61603.63;5081390;28;20381;-68
2021/11/16 01:40:15;;;;;;;29.23;17.38;;;6.80;99.90;;;5.83;100.00;61603.34;5085045;28;20040;-68
2021/11/16 01:42:49;;;;;;;32.17;16.25;;;6.80;99.90;;;5.84;100.00;61603.75;5091436;28;20071;-69
2021/11/16 01:45:16;;;;;;;;;;;6.80;99.90;;;5.84;100.00;61603.41;5073848;28;20047;-68
2021/11/16 01:47:44;;;;;;;29.98;16.15;;;6.80;99.90;;;5.83;100.00;61603.16;5084220;28;20022;-68
2021/11/16 01:50:13;;;;;;;32.70;15.95;;;6.80;99.90;;;5.84;100.00;61603.91;5090114;28;20097;-68
2021/11/16 01:52:41;;;;;;;26.45;14.60;;;6.90;99.90;;;5.84;100.00;61603.91;5084304;28;20083;-68
2021/11/16 01:55:11;;;;;;;28.73;15.07;;;6.80;99.90;;;5.84;100.00;61603.97;5082190;28;20119;-68
2021/11/16 01:57:39;;;;;;;37.78;18.80;;;6.80;99.90;;;5.84;100.00;61604.47;5083617;28;20131;-68
2021/11/16 02:00:12;;;;;;;33.03;17.63;;;6.80;99.90;;;5.84;100.00;61603.75;5088071;28;20044;-68
2021/11/16 02:02:40;;;;;;;31.75;17.15;;;6.80;99.90;;;5.83;100.00;61602.50;5073448;28;20126;-68
2021/11/16 02:05:08;;;;;;;29.83;16.67;;;6.80;99.90;;;5.83;100.00;61602.44;5088366;28;20398;-68
2021/11/16 02:07:35;;;;;;;37.42;18.45;;;6.80;99.90;;;5.83;100.00;61602.78;5074511;28;20131;-68
2021/11/16 02:10:05;;;;;;;35.75;18.05;;;6.80;99.90;;;5.82;100.00;61601.81;5083915;28;20146;-68
2021/11/16 02:12:31;;;;;;;27.35;15.65;;;6.80;99.90;;;5.82;100.00;61602.13;5087355;28;20048;-68
2021/11/16 02:14:59;;;;;;;34.28;18.48;;;6.80;99.90;;;5.82;100.00;61602.38;5085259;28;20122;-69
2021/11/16 02:17:26;;;;;;;33.58;16.45;;;6.80;99.90;;;5.83;100.00;61602.66;5073220;28;20083;-68
2021/11/16 02:19:53;;;;;;;31.77;17.25;;;6.80;99.90;;;5.83;100.00;61603.78;5085254;28;20044;-68
2021/11/16 02:22:20;;;;;;;32.25;17.02;;;6.80;99.90;;;5.84;100.00;61604.34;5067464;28;20079;-68
2021/11/16 02:24:48;;;;;;;32.28;16.65;;;6.80;99.90;;;5.85;100.00;61605.16;5085809;28;20040;-68
2021/11/16 02:27:15;;;;;;;27.48;14.93;;;6.80;99.90;;;5.86;100.00;61606.50;5071589;28;20145;-68
2021/11/16 02:29:43;;;;;;;31.55;16.70;;;6.90;99.90;;;5.86;100.00;61606.91;5085143;28;20139;-68
2021/11/16 02:32:09;;;;;;;30.55;16.73;;;6.90;99.90;;;5.87;100.00;61607.28;5085034;28;20123;-68
2021/11/16 02:34:38;;;;;;;30.13;17.02;;;6.90;99.90;;;5.87;100.00;61608.00;5089676;28;20131;-68
2021/11/16 02:37:05;;;;;;;39.03;19.23;;;6.90;99.90;;;5.87;100.00;61607.66;5086798;28;20154;-68
2021/11/16 02:39:32;;;;;;;35.15;18.90;;;6.80;99.90;;;5.86;100.00;61606.66;5071687;28;20106;-68
2021/11/16 02:42:00;;;;;;;30.83;16.70;;;6.70;99.90;;;5.86;100.00;61607.13;5087827;28;20048;-68
2021/11/16 02:44:27;;;;;;;35.30;18.33;;;6.70;99.90;;;5.86;100.00;61607.53;5093928;28;20123;-68
2021/11/16 02:46:54;;;;;;;30.20;15.90;;;6.70;99.90;;;5.86;100.00;61607.38;5085629;28;20127;-68
2021/11/16 02:49:21;;;;;;;29.83;17.75;;;6.80;99.90;;;5.86;100.00;61606.56;5088912;28;20047;-68
2021/11/16 02:51:48;;;;;;;36.17;16.70;;;6.80;99.90;;;5.86;100.00;61606.56;5088064;28;20127;-69
2021/11/16 02:54:20;;;;;;;36.65;18.98;;;6.80;99.90;;;5.86;100.00;61607.00;5081847;28;20055;-69
2021/11/16 02:56:48;;;;;;;29.15;16.35;;;6.80;99.90;;;5.86;100.00;61606.72;5081507;28;20074;-69
2021/11/16 02:59:15;;;;;;;29.40;16.73;;;6.80;99.90;;;5.86;100.00;61607.22;5083889;28;20462;-69
2021/11/16 03:01:43;;;;;;;39.63;20.20;;;6.80;99.90;;;5.87;100.00;61607.94;5084739;28;20048;-69
2021/11/16 03:04:21;;;;;;;36.30;18.77;;;6.90;99.90;;;5.88;100.00;61609.13;5085475;28;20055;-68
2021/11/16 03:06:48;;;;;;;35.25;18.23;;;6.80;99.90;;;5.89;100.00;61609.25;5076364;28;20509;-69
2021/11/16 03:09:15;;;;;;;32.25;18.10;;;6.90;99.90;;;5.89;100.00;61609.41;5088901;28;20070;-69
2021/11/16 03:11:42;;;;;;;39.25;18.95;;;6.80;99.90;;;5.89;100.00;61609.84;5088743;28;20421;-69
2021/11/16 03:14:09;;;;;;;30.98;17.38;;;6.90;99.90;;;5.89;100.00;61609.69;5087637;28;20444;-69
2021/11/16 03:16:36;;;;;;;34.90;18.50;;;6.80;99.90;;;5.89;100.00;61608.94;5085738;28;20142;-69
2021/11/16 03:19:03;;;;;;;29.35;16.20;;;6.80;99.90;;;5.89;100.00;61609.16;5089937;28;20139;-68
2021/11/16 03:21:29;;;;;;;37.03;18.92;;;6.80;99.90;;;5.89;100.00;61609.31;5088045;28;20122;-69
2021/11/16 03:23:58;;;;;;;35.22;18.05;;;6.80;99.90;;;5.89;100.00;61608.88;5087430;28;20143;-69
2021/11/16 03:26:27;;;;;;;37.25;18.63;;;6.80;99.90;;;5.90;100.00;61609.97;5087854;28;20449;-69
2021/11/16 03:28:54;;;;;;;30.98;17.58;;;6.80;99.90;;;5.90;100.00;61610.06;5084872;28;20474;-68
2021/11/16 03:33:49;;;;;;;42.03;17.42;;;6.90;99.90;;;5.91;100.00;61610.44;5089258;28;20056;-69
2021/11/16 03:36:19;;;;;;;45.45;21.73;;;6.80;99.90;;;5.91;100.00;61610.75;5089329;28;20135;-69
2021/11/16 03:38:47;;;;;;;45.33;22.33;;;6.80;99.90;;;5.90;100.00;61610.06;5088279;28;20098;-69
2021/11/16 03:41:16;;;;;;;37.97;19.13;;;6.80;99.90;;;5.89;100.00;61608.94;5088354;28;20123;-69
2021/11/16 03:43:44;;;;;;;34.08;19.02;;;6.80;99.90;;;5.89;100.00;61608.84;5088501;28;20121;-69
2021/11/16 03:46:11;;;;;;;40.70;21.25;;;6.80;99.90;;;5.89;100.00;61609.25;5086493;28;20083;-69
2021/11/16 03:48:39;;;;;;;37.75;20.05;;;6.80;99.90;;;5.89;100.00;61609.00;5086390;28;20119;-68
2021/11/16 03:51:06;;;;;;;40.50;21.67;;;6.80;99.90;;;5.88;100.00;61608.00;5088861;28;20132;-69
2021/11/16 03:53:33;;;;;;;42.47;20.73;;;6.80;99.90;;;5.88;100.00;61607.88;5088467;28;20134;-69
2021/11/16 03:56:01;;;;;;;43.38;20.67;;;6.80;99.90;;;5.87;100.00;61607.25;5069395;28;20123;-68
2021/11/16 03:58:28;;;;;;;40.20;20.17;;;6.80;99.90;;;5.87;100.00;61607.28;5089405;28;20099;-69
2021/11/16 04:01:06;;;;;;;35.10;18.30;;;6.80;99.90;;;5.87;100.00;61607.56;5094660;28;20067;-69
2021/11/16 04:03:39;;;;;;;46.63;22.92;;;6.80;99.90;;;5.86;100.00;61606.59;5071843;28;20087;-69
2021/11/16 04:06:06;;;;;;;40.53;20.03;;;6.80;99.90;;;5.84;100.00;61604.63;5089427;28;20127;-68
2021/11/16 04:08:35;;;;;;;42.45;21.08;;;6.70;99.90;;;5.83;100.00;61603.63;5086864;28;20147;-69
2021/11/16 04:11:02;;;;;;;37.65;20.02;;;6.70;99.90;;;5.82;100.00;61601.75;5087928;28;20116;-68
2021/11/16 04:13:30;;;;;;;43.63;22.77;;;6.70;99.90;;;5.80;100.00;61600.38;5089682;28;20048;-69
2021/11/16 04:15:58;;;;;;;40.58;21.88;;;6.60;99.90;;;5.79;100.00;61598.69;5087954;28;20075;-68
2021/11/16 04:18:25;;;;;;;45.30;24.17;;;6.60;99.90;;;5.78;100.00;61597.81;5072352;28;20164;-69
2021/11/16 04:20:55;;;;;;;45.45;23.02;;;6.60;99.90;;;5.77;100.00;61596.72;5093713;28;20072;-69
2021/11/16 04:23:24;;;;;;;42.45;21.27;;;6.60;99.90;;;5.76;100.00;61596.09;5067390;28;20134;-69
2021/11/16 04:25:53;;;;;;;36.85;19.55;;;6.60;99.90;;;5.75;100.00;61596.00;5089478;28;20123;-69
2021/11/16 04:28:22;;;;;;;38.20;20.88;;;6.60;99.90;;;5.75;100.00;61595.03;5073902;28;20051;-69
2021/11/16 04:30:50;;;;;;;39.90;21.15;;;6.70;99.90;;;5.74;100.00;61594.03;5088623;28;20083;-69
2021/11/16 04:33:20;;;;;;;37.75;19.48;;;6.70;99.90;;;5.73;100.00;61592.97;5087305;28;20059;-69
2021/11/16 04:35:48;;;;;;;38.35;20.58;;;6.60;99.90;;;5.71;100.00;61591.16;5085479;28;20106;-69
2021/11/16 04:38:16;;;;;;;37.20;20.55;;;6.60;99.90;;;5.69;100.00;61589.03;5083901;28;20132;-69
2021/11/16 04:40:52;;;;;;;40.88;22.27;;;6.50;99.90;;;5.68;100.00;61587.38;5082783;28;20512;-69
2021/11/16 04:43:24;;;;;;;38.47;21.17;;;6.50;99.90;;;5.66;100.00;61585.75;5089465;28;20044;-69
2021/11/16 04:45:54;;;;;;;39.80;21.80;;;6.50;99.90;;;5.65;100.00;61584.06;5088671;28;20051;-68
2021/11/16 04:48:30;;;;;;;39.72;20.00;;;6.50;99.90;;;5.64;100.00;61583.59;5085028;28;20135;-68
2021/11/16 05:04:38;;;;;;;42.70;22.27;;;6.60;99.90;;;5.62;100.00;61580.81;5085392;28;20124;-68
2021/11/16 05:07:16;;;;;;;38.88;20.20;;;6.60;99.90;;;5.62;100.00;61580.97;5087240;28;20118;-68
2021/11/16 05:09:53;;;;;;;34.75;18.45;;;6.60;99.90;;;5.62;100.00;61581.13;5084181;28;20146;-68
2021/11/16 05:12:23;;;;;;;33.55;18.50;;;6.60;99.90;;;5.61;100.00;61580.44;5087785;28;20079;-68
2021/11/16 05:14:51;;;;;;;37.95;19.33;;;6.60;99.90;;;5.62;100.00;61581.09;5084351;28;20127;-68
2021/11/16 05:17:18;;;;;;;36.10;19.48;;;6.60;99.90;;;5.62;100.00;61581.13;5083913;28;20127;-68
2021/11/16 05:19:46;;;;;;;38.03;19.95;;;6.60;99.90;;;5.62;100.00;61580.81;5085214;28;20095;-68
2021/11/16 05:22:13;;;;;;;39.97;19.70;;;6.60;99.90;;;5.63;100.00;61581.41;5067139;28;20076;-68
2021/11/16 05:24:40;;;;;;;37.15;21.15;;;6.60;99.90;;;5.63;100.00;61581.69;5084204;28;20067;-67
2021/11/16 05:27:08;;;;;;;45.70;22.45;;;6.60;99.90;;;5.64;100.00;61582.84;5083298;28;20135;-68
2021/11/16 05:29:36;;;;;;;44.47;23.30;;;6.60;99.90;;;5.63;100.00;61582.72;5075758;28;20044;-68
2021/11/16 05:32:03;;;;;;;46.95;23.63;;;6.60;99.90;;;5.63;100.00;61581.91;5062359;28;20523;-68
2021/11/16 05:34:30;;;;;;;46.55;24.58;;;6.60;99.90;;;5.62;100.00;61580.81;5076742;28;20056;-67
2021/11/16 05:36:57;;;;;;;44.25;23.65;;;6.50;99.90;;;5.61;100.00;61579.97;5069763;28;20139;-68
2021/11/16 05:39:25;;;;;;;46.22;23.45;;;6.50;99.90;;;5.60;100.00;61579.44;5076406;28;20139;-68
2021/11/16 05:41:52;;;;;;;45.58;24.23;;;6.50;99.90;;;5.60;100.00;61578.47;5072867;28;20494;-68
2021/11/16 05:44:19;;;;;;;37.70;20.55;;;6.50;99.90;;;5.59;100.00;61577.38;5089146;28;20135;-68
2021/11/16 05:46:46;;;;;;;47.78;21.92;;;6.50;99.90;;;5.58;100.00;61577.09;5089194;28;20123;-68
2021/11/16 05:49:13;;;;;;;38.83;18.88;;;6.50;99.90;;;5.59;100.00;61577.97;5079676;28;20469;-67
2021/11/16 05:51:40;;;;;;;37.90;19.15;;;6.60;99.90;;;5.59;100.00;61577.81;5076070;28;20139;-68
2021/11/16 05:54:15;;;;;;;36.92;19.30;;;6.60;99.90;;;5.59;100.00;61577.97;5090795;28;20131;-67
2021/11/16 05:56:43;;;;;;;33.88;18.08;;;6.60;99.90;;;5.59;100.00;61577.97;5092130;28;20452;-67
2021/11/16 05:59:10;;;;;;;38.50;20.00;;;6.60;99.90;;;5.59;100.00;61577.53;5092367;28;20076;-68
2021/11/16 06:01:38;;;;;;;39.05;19.98;;;6.60;99.90;;;5.59;100.00;61577.34;5095933;28;20044;-67
2021/11/16 06:04:06;;;;;;;37.42;19.40;;;6.60;99.90;;;5.60;100.00;61578.59;5088248;28;20036;-67
2021/11/16 06:06:37;;;;;;;33.80;18.27;;;6.60;99.90;;;5.61;100.00;61579.41;5077796;28;20351;-67
2021/11/16 06:09:06;;;;;;;33.90;17.50;;;6.60;99.90;;;5.61;100.00;61580.38;5090641;28;20106;-67
2021/11/16 06:11:34;;;;;;;35.58;18.73;;;6.60;99.90;;;5.62;100.00;61581.47;5090496;28;20138;-67
2021/11/16 06:14:01;;;;;;;32.55;17.63;;;6.60;99.90;;;5.64;100.00;61582.78;5083140;28;20056;-68
2021/11/16 06:16:29;;;;;;;38.75;20.23;;;6.70;99.90;;;5.65;100.00;61583.88;5084842;28;20494;-68
2021/11/16 06:19:00;;;;;;;34.28;18.00;;;6.70;99.90;;;5.66;100.00;61585.59;5073946;28;20521;-68
2021/11/16 06:21:29;;;;;;;34.22;18.67;;;6.70;99.90;;;5.66;100.00;61585.97;5084837;28;20044;-67
2021/11/16 06:23:57;;;;;;;32.05;18.08;;;6.60;99.90;;;5.67;100.00;61586.19;5084986;28;20072;-67
2021/11/16 06:26:26;;;;;;;32.22;18.35;;;6.60;99.90;;;5.66;100.00;61585.66;5091476;28;20123;-68
2021/11/16 06:28:54;;;;;;;42.83;20.48;;;6.60;99.90;;;5.66;100.00;61585.72;5097313;28;20075;-67
2021/11/16 06:31:23;;;;;;;37.75;20.10;;;6.60;99.90;;;5.65;100.00;61585.03;5094831;28;20048;-68
2021/11/16 06:33:51;;;;;;;41.70;21.45;;;6.60;99.90;;;5.64;100.00;61583.41;5090688;28;20109;-68
2021/11/16 06:36:18;;;;;;;40.30;20.90;;;6.60;99.90;;;5.64;100.00;61583.16;5091833;28;20043;-68
2021/11/16 06:38:45;;;;;;;42.47;21.20;;;6.60;99.90;;;5.63;100.00;61582.72;5069444;28;20159;-68
2021/11/16 06:41:12;;;;;;;37.10;20.08;;;6.50;99.90;;;5.64;100.00;61583.16;5082073;28;20165;-67
2021/11/16 06:43:39;;;;;;;33.05;18.10;;;6.60;99.90;;;5.64;100.00;61583.81;5092608;28;20067;-67
2021/11/16 06:46:06;;;;;;;45.78;22.45;;;6.60;99.90;;;5.65;100.00;61584.63;5091012;28;20135;-68
2021/11/16 06:48:34;;;;;;;44.33;23.35;;;6.60;99.90;;;5.65;100.00;61584.88;5103702;28;20048;-68
2021/11/16 06:51:01;;;;;;;51.33;23.92;;;6.60;99.90;;;5.65;100.00;61584.94;5098566;28;20499;-67
2021/11/16 06:53:34;;;;;;;42.03;22.02;;;6.50;99.90;;;5.64;100.00;61583.25;5090627;28;20048;-68
2021/11/16 06:56:05;;;;;;;46.20;23.02;;;6.50;99.90;;;5.63;100.00;61582.59;5089925;28;20527;-68
2021/11/16 06:58:34;;;;;;;47.33;24.35;;;6.50;99.90;;;5.61;100.00;61580.69;5071255;28;20055;-68
2021/11/16 07:01:05;;;;;;;40.67;21.95;;;6.40;99.90;;;5.60;100.00;61579.13;5077233;28;20071;-68
2021/11/16 07:03:34;;;;;;;38.33;20.88;;;6.40;99.90;;;5.57;100.00;61576.50;5090934;28;20105;-68
2021/11/16 07:06:04;;;;;;;45.60;22.48;;;6.40;99.90;;;5.57;100.00;61576.00;5079065;28;20131;-68
2021/11/16 07:08:40;;;;;;;39.42;21.27;;;6.40;99.90;;;5.55;100.00;61574.06;5063558;28;20183;-68
2021/11/16 07:11:20;;;;;;;44.08;21.27;;;6.40;99.90;;;5.54;100.00;61573.66;5094318;28;20139;-68
2021/11/16 07:14:05;;;;;;;40.95;20.45;;;6.40;99.90;;;5.54;100.00;61572.84;5090586;28;20114;-68
2021/11/16 07:16:57;;;;;;;47.38;24.42;;;6.40;99.90;;;5.53;100.00;61572.31;5055942;28;20059;-68
2021/11/16 07:19:49;;;;;;;48.40;23.92;;;6.30;99.90;;;5.52;100.00;61571.50;5062726;28;20127;-68
2021/11/16 07:22:21;;;;;;;43.03;21.27;;;6.40;99.90;;;5.51;100.00;61570.38;5083628;28;20094;-68
2021/11/16 07:25:00;;;;;;;37.13;20.73;;;6.40;99.90;;;5.51;100.00;61569.91;5089505;28;20044;-67
2021/11/16 07:27:49;;;;;;;40.70;20.42;;;6.40;99.90;;;5.50;100.00;61569.78;5087009;28;20044;-68
2021/11/16 07:30:25;;;;;;;49.92;24.70;;;6.40;99.90;;;5.50;100.00;61569.84;5086164;28;20131;-68
2021/11/16 07:33:02;;;;;;;48.10;25.15;;;6.40;99.90;;;5.50;100.00;61569.13;5089946;28;20076;-68
2021/11/16 07:35:33;;;;;;;56.78;26.92;;;6.40;99.90;;;5.48;100.00;61567.50;5083239;28;20044;-67
2021/11/16 07:38:15;;;;;;;53.05;25.48;;;6.40;99.90;;;5.47;100.00;61566.09;5090839;28;20506;-68
2021/11/16 07:40:47;;;;;;;51.17;24.95;;;6.40;99.90;;;5.46;100.00;61565.28;5068256;28;20050;-67
2021/11/16 07:43:17;;;;;;;46.08;22.58;;;6.40;99.90;;;5.45;100.00;61563.97;5088507;28;20058;-68
2021/11/16 07:45:48;;;;;;;48.95;22.95;;;6.40;99.90;;;5.45;100.00;61563.41;5087965;28;20058;-68
2021/11/16 07:48:19;;;;;;;48.40;23.25;;;6.40;99.90;;;5.45;100.00;61562.69;5090467;28;20048;-68
2021/11/16 07:50:56;;;;;;;49.95;25.67;;;6.40;99.90;;;5.44;100.00;61562.56;5098528;28;20087;-68
2021/11/16 07:53:38;;;;;;;;;;;6.40;99.90;;;5.44;100.00;61561.91;5090376;28;20142;-68
2021/11/16 07:56:06;;;;;;;40.22;21.77;;;6.40;99.90;;;5.43;100.00;61561.81;5090106;28;20409;-67
2021/11/16 07:58:40;;;;;;;41.10;21.52;;;6.40;99.90;;;5.43;100.00;61561.81;5090198;28;20050;-68
2021/11/16 08:01:11;;;;;;;47.33;23.65;;;6.50;99.90;;;5.44;100.00;61561.75;5093355;28;20079;-68
2021/11/16 08:03:50;;;;;;;56.13;26.90;;;6.60;99.90;;;5.44;100.00;61561.88;5088492;28;20064;-68
2021/11/16 08:06:28;;;;;;;62.28;29.10;;;6.50;99.90;;;5.44;100.00;61561.72;5088993;28;20391;-68
2021/11/16 08:09:06;;;;;;;49.40;24.20;;;6.50;99.90;;;5.44;100.00;61561.72;5072729;28;20109;-68
2021/11/16 08:11:38;;;;;;;47.85;25.42;;;6.50;99.90;;;5.43;100.00;61560.91;5073725;28;20075;-68
2021/11/16 08:14:15;;;;;;;51.70;26.58;;;6.50;99.90;;;5.42;100.00;61559.41;5089905;28;20119;-68
2021/11/16 08:17:00;;;;;;;56.67;27.67;;;6.40;99.90;;;5.40;100.00;61557.72;5089898;28;20135;-68
2021/11/16 08:19:34;;;;;;;52.42;26.80;;;6.30;99.90;;;5.39;100.00;61557.00;5086740;28;20418;-68
2021/11/16 08:22:14;;;;;;;55.85;26.20;;;6.30;99.90;;;5.38;100.00;61555.50;5081750;28;20122;-68
2021/11/16 08:24:46;;;;;;;56.47;29.05;;;6.40;99.90;;;5.36;100.00;61553.47;5089184;28;20131;-68
2021/11/16 08:27:24;;;;;;;55.97;28.10;;;6.30;99.90;;;5.34;100.00;61551.69;5086384;28;20083;-68
2021/11/16 08:30:10;;;;;;;61.85;30.00;;;6.30;99.90;;;5.33;100.00;61550.63;5067458;28;20084;-68
2021/11/16 08:32:41;;;;;;;49.80;25.50;;;6.40;99.90;;;5.31;100.00;61548.84;5071858;28;20179;-68
2021/11/16 08:35:13;;;;;;;51.45;26.50;;;6.40;99.90;;;5.30;100.00;61547.22;5070413;28;20533;-68
2021/11/16 08:37:44;;;;;;;66.20;30.15;;;6.40;99.90;;;5.30;100.00;61547.38;5087647;28;20134;-68
2021/11/16 08:40:15;;;;;;;51.08;25.60;;;6.30;99.90;;;5.30;100.00;61547.22;5087405;28;20071;-68
2021/11/16 08:43:02;;;;;;;64.57;30.50;;;6.30;99.90;;;5.30;100.00;61547.06;5089818;28;20150;-68
2021/11/16 08:45:35;;;;;;;45.75;23.85;;;6.30;99.90;;;5.30;100.00;61547.38;5088950;28;20055;-68
2021/11/16 08:48:17;;;;;;;52.20;26.00;;;6.40;99.90;;;5.29;100.00;61546.41;5089858;28;20050;-68
2021/11/16 08:50:54;;;;;;;59.45;26.77;;;6.40;99.90;;;5.29;100.00;61546.16;5067626;28;20052;-68
2021/11/16 08:53:28;;;;;;;57.00;27.42;;;6.40;99.90;;;5.28;100.00;61545.50;5083456;28;20051;-68
2021/11/16 08:55:56;;;;;;;50.00;25.00;;;6.40;99.90;;;5.27;100.00;61544.72;5084688;28;20052;-68
2021/11/16 08:58:28;;;;;;;42.00;21.17;;;6.30;99.90;;;5.28;100.00;61546.09;5089296;28;20135;-68
2021/11/16 09:01:02;;;;;;;48.22;22.75;;;6.40;99.90;;;5.29;100.00;61546.72;5089508;28;20131;-68
2021/11/16 09:03:35;;;;;;;41.83;21.50;;;6.40;99.90;;;5.30;100.00;61547.75;5088686;28;20463;-68
2021/11/16 09:06:14;;;;;;;47.30;23.88;;;6.50;99.90;;;5.30;100.00;61548.06;5089156;28;20127;-68
2021/11/16 09:08:42;;;;;;;43.20;22.30;;;6.50;99.90;;;5.31;100.00;61548.47;5086436;28;20079;-68
2021/11/16 09:11:18;;;;;;;47.22;24.00;;;6.50;99.90;;;5.31;100.00;61548.19;5085358;28;20460;-68
2021/11/16 09:13:47;;;;;;;47.33;22.75;;;6.50;99.90;;;5.32;100.00;61549.13;5078344;28;20048;-68
2021/11/16 09:16:21;;;;;;;43.40;22.05;;;6.50;99.90;;;5.33;100.00;61551.00;5091271;28;20079;-68
2021/11/16 09:18:54;;;;;;;41.42;22.23;;;6.60;99.90;;;5.35;100.00;61552.66;5091440;28;20047;-67
2021/11/16 09:21:35;;;;;;;41.63;21.85;;;6.60;99.90;;;5.36;100.00;61554.34;5092218;28;20078;-68
2021/11/16 09:24:07;;;;;;;44.33;22.80;;;6.60;99.90;;;5.38;100.00;61556.13;5075063;28;20171;-68
2021/11/16 09:29:17;;;;;;;37.08;20.50;;;6.70;99.90;;;5.41;100.00;61558.81;5079679;28;20143;-68
2021/11/16 09:32:03;;;;;;;40.60;21.13;;;6.70;99.90;;;5.42;100.00;61560.69;5086448;28;20094;-68
2021/11/16 09:34:40;;;;;;;43.75;22.25;;;6.70;99.90;;;5.44;100.00;61562.06;5076002;28;20179;-68
2021/11/16 09:37:22;;;;;;;49.67;24.48;;;6.60;99.90;;;5.44;100.00;61562.47;5097415;28;20040;-68
2021/11/16 09:39:54;;;;;;;42.53;20.73;;;6.60;99.90;;;5.45;100.00;61563.66;5071442;28;20075;-67
2021/11/16 09:42:28;;;;;;;44.17;23.45;;;6.60;99.90;;;5.46;100.00;61564.47;5080408;28;20052;-67
2021/11/16 09:45:16;;;;;;;42.08;21.80;;;6.70;99.90;;;5.48;100.00;61565.84;5088381;28;20040;-68
2021/11/16 09:47:44;;;;;;;55.17;26.17;;;6.70;99.90;;;5.49;100.00;61566.75;5091014;28;20126;-68
2021/11/16 09:50:20;;;;;;;39.72;20.35;;;6.70;99.90;;;5.50;100.00;61567.81;5088879;28;20139;-68
2021/11/16 09:52:56;;;;;;;53.53;23.50;;;6.70;99.90;;;5.51;100.00;61568.63;5076269;28;20506;-68
2021/11/16 09:55:30;;;;;;;42.58;21.30;;;6.70;99.90;;;5.51;100.00;61568.84;5079171;28;20162;-68
2021/11/16 09:58:00;;;;;;;;;;;6.70;99.90;;;5.52;100.00;61569.69;5089796;28;20456;-68
2021/11/16 10:00:36;;;;;;;48.40;21.63;;;6.70;99.90;;;5.52;100.00;61570.06;5099211;28;20032;-68
2021/11/16 10:03:11;;;;;;;41.25;20.90;;;6.70;99.90;;;5.52;100.00;61570.22;5090769;28;20051;-68
2021/11/16 10:05:47;;;;;;;45.63;21.65;;;6.60;99.90;;;5.52;100.00;61570.00;5073050;28;20137;-68
2021/11/16 10:08:16;;;;;;;42.00;19.70;;;6.60;99.90;;;5.51;100.00;61569.28;5055016;28;20435;-68
2021/11/16 10:10:54;;;;;;;42.35;21.08;;;6.60;99.90;;;5.51;100.00;61568.72;5085171;28;20068;-68
2021/11/16 10:13:25;;;;;;;38.47;19.70;;;6.60;99.90;;;5.50;100.00;61568.41;5071800;28;20072;-68
2021/11/16 10:15:56;;;;;;;46.03;23.13;;;6.60;99.90;;;5.49;100.00;61567.34;5056863;28;20128;-68
2021/11/16 10:18:26;;;;;;;38.63;19.60;;;6.50;99.90;;;5.48;100.00;61566.97;5085236;28;20415;-68
2021/11/16 10:20:55;;;;;;;39.30;18.98;;;6.50;99.90;;;5.48;100.00;61566.16;5084581;28;20093;-68
2021/11/16 10:23:35;;;;;;;50.80;24.02;;;6.50;99.90;;;5.47;100.00;61565.56;5060263;28;20410;-68
2021/11/16 10:26:04;;;;;;;47.35;22.52;;;6.50;99.90;;;5.47;100.00;61565.41;5087079;28;20131;-67
2021/11/16 10:28:36;;;;;;;41.08;20.48;;;6.60;99.90;;;5.47;100.00;61564.84;5078372;28;20131;-67
2021/11/16 10:31:03;;;;;;;40.05;20.08;;;6.60;99.90;;;5.47;100.00;61564.75;5076931;28;20114;-68
2021/11/16 10:33:40;;;;;;;40.35;19.38;;;6.60;99.90;;;5.47;100.00;61564.75;5085350;28;20124;-68
2021/11/16 10:36:11;;;;;;;41.55;22.08;;;6.60;99.90;;;5.47;100.00;61564.75;5086879;28;20131;-68
2021/11/16 10:38:57;;;;;;;42.25;20.42;;;6.60;99.90;;;5.47;100.00;61564.69;5089645;28;20075;-68
2021/11/16 10:41:31;;;;;;;35.95;19.17;;;6.50;99.90;;;5.47;100.00;61565.22;5073970;28;20075;-67
2021/11/16 10:44:11;;;;;;;36.17;18.35;;;6.60;99.90;;;5.48;100.00;61565.91;5089585;28;20131;-68
2021/11/16 10:46:42;;;;;;;36.75;19.75;;;6.70;99.90;;;5.48;100.00;61565.91;5078190;28;20127;-68